| Place | Name | Time | Raw score | Score |
|---|---|---|---|---|
| 1 | Ferreus | 1:52.65 | 1,000 | 293 |
| 2 | Jacsn | 1:59.58 | 900 | 263 |
| 3 | gustofon-line | 2:05.29 | 859 | 251 |
| 4 | Jay2a | 2:05.33 | 827 | 242 |
| 5 | Nico | 2:06.22 | 800 | 234 |
| 6 | Plasmawario | 2:07.17 | 777 | 227 |
| 7 | OMANEYE | 2:07.20 | 756 | 221 |
| 8 | Freud | 2:08.01 | 736 | 215 |
| 9 | Goldbergenstein | 2:08.03 | 718 | 210 |
| 10 | Dreigo | 2:08.13 | 700 | 205 |
| 11 | Nerf | 2:08.54 | 684 | 200 |
| 12 | Ashton_bro | 2:09.77 | 669 | 196 |
| 13 | Backgrounds' | 2:10.04 | 654 | 191 |
| 14 | IllKIllU | 2:10.28 | 640 | 187 |
| 15 | Host | 2:10.67 | 626 | 183 |
| 16 | KnightBane | 2:11.00 | 613 | 179 |
| 17 | Kinix | 2:11.19 | 600 | 176 |
| 18 | Waonder | 2:11.55 | 588 | 172 |
| 19 | i0nTempest | 2:11.89 | 576 | 169 |
| 20 | concil | 2:12.02 | 565 | 165 |
| 21 | Zany | 2:12.10 | 553 | 162 |
| 22 | Californ1a | 2:12.21 | 542 | 159 |
| 23 | Sidewinder Fang | 2:12.34 | 531 | 155 |
| 24 | OriReal_CAOS | 2:12.35 | 521 | 153 |
| 25 | Void Concept | 2:12.47 | 511 | 150 |
| 26 | cerberus❤ | 2:12.65 | 500 | 146 |
| 27 | Kenaz | 2:12.78 | 491 | 144 |
| 28 | jason | 2:12.82 | 481 | 141 |
| 29 | Hayden | 2:12.90 | 471 | 138 |
| 30 | SlowScan | 2:13.21 | 462 | 135 |
| 31 | Dimitri | 2:13.36 | 453 | 133 |
| 32 | Tilin | 2:13.55 | 444 | 130 |
| 33 | CheeseWithHoles | 2:13.59 | 435 | 127 |
| 34 | Bridge | 2:13.64 | 426 | 125 |
| 35 | FluffyTheZombii | 2:13.91 | 417 | 122 |
| 36 | A Moldy Orange | 2:14.14 | 409 | 120 |
| 37 | MsKittyCakes | 2:14.42 | 400 | 117 |
| 38 | DefenderOfHyrule | 2:14.51 | 392 | 115 |
| 39 | Charlotte | 2:14.64 | 384 | 112 |
| 40 | Sunchipp Games | 2:14.67 | 376 | 110 |
| 41 | Strafe | 2:14.73 | 368 | 108 |
| 42 | Azure Zakura | 2:14.76 | 360 | 105 |
| 43 | Latapi | 2:14.84 | 352 | 103 |
| 43 | XiQu3sT | 2:14.84 | 352 | 103 |
| 45 | Quirked-up White Boy | 2:14.87 | 337 | 99 |
| 46 | Aiko | 2:14.89 | 330 | 97 |
| 47 | ペレリン | 2:14.97 | 322 | 94 |
| 48 | TP-N.co PC-118 B-10001110101 | 2:15.03 | 315 | 92 |
| 49 | [deleted] | 2:15.04 | 308 | 90 |
| 50 | HyperNova | 2:15.07 | 300 | 88 |
| 51 | G9 | 2:15.08 | 293 | 86 |
| 52 | cptnbean | 2:15.14 | 286 | 84 |
| 52 | Jarminx | 2:15.14 | 286 | 84 |
| 54 | JacquetheRipper | 2:15.19 | 272 | 80 |
| 55 | Cancer Liquid | 2:15.22 | 266 | 78 |
| 56 | Overlord | 2:15.29 | 259 | 76 |
| 57 | Xeno146 | 2:15.31 | 252 | 74 |
| 58 | HeroicShadow | 2:15.32 | 246 | 72 |
| 59 | TheMelonGod | 2:15.34 | 239 | 70 |
| 60 | PathToV1ctory | 2:15.35 | 232 | 68 |
| 61 | The Blue Fox | 2:15.36 | 226 | 66 |
| 62 | ant | 2:15.46 | 219 | 64 |
| 63 | Curious Fish | 2:15.49 | 213 | 62 |
| 64 | s00 | 2:15.58 | 207 | 61 |
| 65 | TheEvilMidnightBomber | 2:15.63 | 200 | 59 |
| 66 | Saberik | 2:15.67 | 194 | 57 |
| 67 | Birb | 2:15.70 | 188 | 55 |
| 68 | Mr. Doggy | 2:15.72 | 182 | 53 |
| 69 | NoBody | 2:15.74 | 176 | 52 |
| 70 | kashyyyke | 2:15.78 | 170 | 50 |
| 71 | Sébastien Lecornu II | 2:15.89 | 164 | 48 |
| 72 | Nether | 2:15.93 | 158 | 46 |
| 73 | Dracheron | 2:16.00 | 152 | 44 |
| 74 | LobaDK | 2:16.12 | 146 | 43 |
| 75 | Tribow | 2:16.26 | 140 | 41 |
| 76 | kriz_chan | 2:16.27 | 134 | 39 |
| 77 | Spaceburger | 2:16.29 | 129 | 38 |
| 78 | codename_rb | 2:16.31 | 123 | 36 |
| 79 | iHaveAwfulIdeas | 2:16.32 | 117 | 34 |
| 80 | fentanyl lover <3 | 2:16.35 | 112 | 33 |
| 81 | Swizy | 2:16.39 | 106 | 31 |
| 82 | Moonie | 2:16.41 | 100 | 29 |
| 83 | Sensokaku | 2:16.43 | 95 | 28 |
| 84 | Crubo | 2:16.58 | 89 | 26 |
| 85 | Zodiac | 2:16.69 | 84 | 25 |
| 86 | The Unusual Suspect | 2:16.90 | 79 | 23 |
| 87 | Sartha | 2:16.91 | 73 | 21 |
| 88 | Rhetorical Question | 2:16.92 | 68 | 20 |
| 89 | MAT D.R.⎛⎝≥⏝⏝≤⎠⎞ | 2:16.93 | 62 | 18 |
| 90 | Zero_Antlax | 2:16.96 | 57 | 17 |
| 91 | Inzarin | 2:17.02 | 52 | 15 |
| 92 | Гвоздь | 2:17.18 | 47 | 14 |
| 93 | Keiyo | 2:17.25 | 41 | 12 |
| 94 | rbrules | 2:17.26 | 36 | 11 |
| 95 | fischpferd | 2:17.28 | 31 | 9 |
| 96 | playedmin16 | 2:17.29 | 26 | 8 |
| 97 | Naikel [FR] | 2:17.37 | 21 | 6 |
| 98 | HJQLF | 2:17.40 | 16 | 5 |
| 99 | ❣God of Hyperdeth❣ | 2:17.41 | 11 | 3 |
| 100 | Sayukki | 2:17.42 | 6 | 2 |
| 101 | LogicalParadox | 2:17.46 | 0 | 0 |
| 102 | IanRosk | 2:17.53 | 0 | 0 |
| 103 | Pompous Whale | 2:17.55 | 0 | 0 |
| 103 | Viridus | 2:17.55 | 0 | 0 |
| 105 | Rusty Shackleford | 2:17.57 | 0 | 0 |
| 106 | RaiderZulu | 2:17.60 | 0 | 0 |
| 107 | GaiaGaiyus | 2:17.70 | 0 | 0 |
| 108 | KaitoTake2006 | 2:17.92 | 0 | 0 |
| 109 | tveh | 2:18.00 | 0 | 0 |
| 110 | Lliane | 2:18.01 | 0 | 0 |
| 111 | Luminous | 2:18.11 | 0 | 0 |
| 112 | Pfirsichgelee | 2:18.14 | 0 | 0 |
| 113 | ルイーズ | 2:18.15 | 0 | 0 |
| 114 | Orion | 2:18.19 | 0 | 0 |
| 114 | danny1234331 | 2:18.19 | 0 | 0 |
| 116 | BlacKat | 2:18.21 | 0 | 0 |
| 117 | baakstaff | 2:18.23 | 0 | 0 |
| 118 | Razzbazz | 2:18.26 | 0 | 0 |
| 119 | pox | 2:18.31 | 0 | 0 |
| 120 | delfiler | 2:18.41 | 0 | 0 |
| 120 | Grungus | 2:18.41 | 0 | 0 |
| 122 | pcl219 | 2:18.49 | 0 | 0 |
| 123 | Naoroji | 2:18.67 | 0 | 0 |
| 124 | But we're both girls! | 2:18.70 | 0 | 0 |
| 125 | ⛧CR4CKERS⛧ | 2:18.74 | 0 | 0 |
| 126 | Semtex4ya | 2:18.82 | 0 | 0 |
| 127 | Weird Pumpkin | 2:18.85 | 0 | 0 |
| 128 | Epsilon_Knight | 2:18.92 | 0 | 0 |
| 129 | Simon Evo | 2:18.97 | 0 | 0 |
| 130 | PurpleSuede | 2:18.98 | 0 | 0 |
| 131 | Damionf | 2:19.00 | 0 | 0 |
| 132 | Tem | 2:19.07 | 0 | 0 |
| 133 | S.Kappelmann | 2:19.09 | 0 | 0 |
| 134 | DROCHEPOLK | 2:19.34 | 0 | 0 |
| 135 | SuiSidalkittEn | 2:19.63 | 0 | 0 |
| 136 | Paparazzi | 2:19.77 | 0 | 0 |
| 137 | Zenith | 2:19.86 | 0 | 0 |
| 138 | ElHombre86 | 2:20.00 | 0 | 0 |
| 139 | Benji | 2:20.02 | 0 | 0 |
| 140 | Kincaid | 2:20.57 | 0 | 0 |
| 141 | DamnedDeyvid | 2:20.59 | 0 | 0 |
| 142 | Dante | 2:20.61 | 0 | 0 |
| 143 | Caradog | 2:20.78 | 0 | 0 |
| 144 | PinesOfChaos | 2:20.89 | 0 | 0 |
| 144 | Ozymandias | 2:20.89 | 0 | 0 |
| 146 | CodedCrow | 2:20.94 | 0 | 0 |
| 147 | Dorphan | 2:20.95 | 0 | 0 |
| 148 | Krull | 2:21.09 | 0 | 0 |
| 149 | Tuli | 2:21.13 | 0 | 0 |
| 150 | Nagrom | 2:21.22 | 0 | 0 |
| 151 | slug ʕ●.●ʔ | 2:21.46 | 0 | 0 |
| 151 | The Biggest [REDACTED] Ogre | 2:21.46 | 0 | 0 |
| 153 | Alex | 2:21.48 | 0 | 0 |
| 154 | fancy barbecue | 2:21.51 | 0 | 0 |
| 155 | itsukarine | 2:21.69 | 0 | 0 |
| 156 | 25 минут кайфа | 2:21.73 | 0 | 0 |
| 157 | e⁻ | 2:21.86 | 0 | 0 |
| 158 | Maxter Max | 2:22.00 | 0 | 0 |
| 159 | Fancy | 2:22.10 | 0 | 0 |
| 160 | Iris | 2:22.22 | 0 | 0 |
| 161 | Nero | 2:22.24 | 0 | 0 |
| 162 | Fish | 2:22.69 | 0 | 0 |
| 163 | BlackOnyx | 2:22.81 | 0 | 0 |
| 164 | MrCrazYFox | 2:22.90 | 0 | 0 |
| 165 | -DarkLlama- | 2:22.98 | 0 | 0 |
| 166 | Sev | 2:23.10 | 0 | 0 |
| 167 | khrisround2 | 2:23.31 | 0 | 0 |
| 168 | TinFoilMkIV | 2:23.41 | 0 | 0 |
| 169 | Corecii | 2:23.56 | 0 | 0 |
| 170 | GLUBBA | 2:23.65 | 0 | 0 |
| 171 | Verdor | 2:23.77 | 0 | 0 |
| 172 | Ultin00b | 2:23.89 | 0 | 0 |
| 173 | Mambo | 2:23.91 | 0 | 0 |
| 174 | Todd Baxter | 2:24.11 | 0 | 0 |
| 175 | DasGerippe | 2:24.12 | 0 | 0 |
| 176 | NIIVAI | 2:24.43 | 0 | 0 |
| 177 | krakentoa | 2:24.52 | 0 | 0 |
| 178 | Wipeout! | 2:24.69 | 0 | 0 |
| 179 | Ame | 2:25.19 | 0 | 0 |
| 179 | K9 | 2:25.19 | 0 | 0 |
| 181 | Bistdocs | 2:25.28 | 0 | 0 |
| 182 | jaunn | 2:25.30 | 0 | 0 |
| 183 | Apocalyptic Bunny | 2:25.47 | 0 | 0 |
| 184 | Muggestutz | 2:25.48 | 0 | 0 |
| 185 | Chromakaze | 2:25.51 | 0 | 0 |
| 186 | LordBohne2 | 2:25.55 | 0 | 0 |
| 187 | notguts | 2:26.10 | 0 | 0 |
| 188 | Stormtrooper | 2:26.12 | 0 | 0 |
| 189 | Thr | 2:26.21 | 0 | 0 |
| 190 | Greenfire DX | 2:26.24 | 0 | 0 |
| 191 | Dango | 2:26.50 | 0 | 0 |
| 192 | Grat | 2:26.69 | 0 | 0 |
| 193 | Ruslan145 | 2:26.70 | 0 | 0 |
| 194 | jmdajm7 | 2:26.92 | 0 | 0 |
| 195 | Chase | 2:26.99 | 0 | 0 |
| 196 | generally incompetent | 2:27.03 | 0 | 0 |
| 197 | Fromage | 2:27.18 | 0 | 0 |
| 198 | KittenettiK | 2:27.47 | 0 | 0 |
| 199 | skuzzzy | 2:27.48 | 0 | 0 |
| 200 | samson13 | 2:27.70 | 0 | 0 |
| 201 | Wollkopf | 2:27.79 | 0 | 0 |
| 202 | Aqua Master | 2:27.80 | 0 | 0 |
| 203 | CuddleStrike | 2:27.81 | 0 | 0 |
| 204 | Cheapo | 2:28.00 | 0 | 0 |
| 205 | Jezo | 2:28.02 | 0 | 0 |
| 206 | Steuben | 2:28.25 | 0 | 0 |
| 207 | thatlunchboxguy | 2:28.46 | 0 | 0 |
| 208 | Ameba | 2:28.47 | 0 | 0 |
| 209 | Andy95 | 2:28.71 | 0 | 0 |
| 209 | blue | 2:28.71 | 0 | 0 |
| 211 | Aotia | Qubic | 2:29.37 | 0 | 0 |
| 212 | Blahaj Blast | 2:29.66 | 0 | 0 |
| 213 | Predatory_Balloon | 2:29.95 | 0 | 0 |
| 214 | Screws | 2:30.02 | 0 | 0 |
| 215 | iolyt | 2:30.26 | 0 | 0 |
| 216 | Cyberpunk Ice Noodle | 2:30.29 | 0 | 0 |
| 217 | Mr Elusive | 2:30.50 | 0 | 0 |
| 218 | Earthnuker | 2:31.06 | 0 | 0 |
| 219 | TheBoredguyyy | 2:31.15 | 0 | 0 |
| 220 | Rombommind | 2:31.23 | 0 | 0 |
| 221 | MarsDevastater | 2:31.26 | 0 | 0 |
| 222 | PowaRanja | 2:31.71 | 0 | 0 |
| 223 | Onyon | 2:31.81 | 0 | 0 |
| 224 | Dimitrilium | 2:31.93 | 0 | 0 |
| 225 | Aлиcофaг | 2:31.94 | 0 | 0 |
| 226 | [deleted] | 2:32.13 | 0 | 0 |
| 227 | Phil | 2:32.45 | 0 | 0 |
| 228 | SPEEDYSPEEDBOI | 2:32.63 | 0 | 0 |
| 229 | Barda Ehmos | 2:32.64 | 0 | 0 |
| 230 | Pkaradactyl | 2:32.65 | 0 | 0 |
| 231 | russ117 | 2:32.68 | 0 | 0 |
| 232 | Emerald_Pick | 2:33.10 | 0 | 0 |
| 233 | Entropy can't catch me. | 2:34.56 | 0 | 0 |
| 234 | TheDeco | 2:34.69 | 0 | 0 |
| 235 | Roggee | 2:34.82 | 0 | 0 |
| 236 | EnderKill98 | 2:35.34 | 0 | 0 |
| 237 | LittleKittyArtemis | 2:35.44 | 0 | 0 |
| 238 | Lightshift | 2:35.51 | 0 | 0 |
| 239 | Ty1122 | 2:35.58 | 0 | 0 |
| 240 | Meda | 2:35.67 | 0 | 0 |
| 241 | EmeraldSlash | 2:36.55 | 0 | 0 |
| 242 | AntiGravPilot | 2:36.67 | 0 | 0 |
| 243 | cyace | 2:37.29 | 0 | 0 |
| 244 | The Good Gaming Dragon | 2:37.31 | 0 | 0 |
| 245 | Old Bastard | 2:37.46 | 0 | 0 |
| 246 | GTNeon | 2:37.55 | 0 | 0 |
| 247 | Darwinia | 2:37.81 | 0 | 0 |
| 248 | SmokedScreen | 2:38.21 | 0 | 0 |
| 249 | Razgriez | 2:38.90 | 0 | 0 |
| 250 | YoloMoth | 2:39.10 | 0 | 0 |
| 251 | Derdoron | 2:39.29 | 0 | 0 |
| 252 | Soler | 2:39.34 | 0 | 0 |
| 253 | Doon | 2:39.65 | 0 | 0 |
| 254 | cocob4 | 2:39.71 | 0 | 0 |
| 255 | Sibsen | 2:39.74 | 0 | 0 |
| 256 | Sawabi | 2:40.05 | 0 | 0 |
| 257 | Wolfy Neah | 2:40.94 | 0 | 0 |
| 258 | Achno | 2:41.17 | 0 | 0 |
| 259 | GekoKid | 2:41.35 | 0 | 0 |
| 260 | MisterPionier | 2:41.47 | 0 | 0 |
| 261 | Artum | 2:41.86 | 0 | 0 |
| 262 | ✱ Ale | 2:42.05 | 0 | 0 |
| 263 | DieselFace | 2:42.20 | 0 | 0 |
| 264 | 2:42.75 | 0 | 0 | |
| 265 | athena | 2:43.45 | 0 | 0 |
| 266 | Buttlet | 2:44.03 | 0 | 0 |
| 267 | throbbing_fish | 2:44.21 | 0 | 0 |
| 268 | LittleHappyWolf | 2:44.78 | 0 | 0 |
| 269 | Nuigurumi | 2:44.90 | 0 | 0 |
| 270 | Scarlet | 2:44.93 | 0 | 0 |
| 271 | MaruPig | 2:45.26 | 0 | 0 |
| 272 | 문경왕개미 | 2:45.54 | 0 | 0 |
| 273 | Hanimani2 | 2:45.58 | 0 | 0 |
| 274 | Crimson Blood | 2:45.59 | 0 | 0 |
| 275 | WorkingChickenMH | 2:45.73 | 0 | 0 |
| 276 | Boucoque | 2:46.00 | 0 | 0 |
| 277 | Gaaratoncul (Will) | 2:46.13 | 0 | 0 |
| 278 | calixte.nolta.vt | 2:46.19 | 0 | 0 |
| 279 | Mr Cartmenez | 2:46.39 | 0 | 0 |
| 280 | GetEmOtterHere | 2:46.71 | 0 | 0 |
| 281 | krizithy | 2:46.87 | 0 | 0 |
| 282 | AlphaomegA | 2:46.88 | 0 | 0 |
| 283 | Jarek718 | 2:46.92 | 0 | 0 |
| 284 | thebigbluesky | 2:48.26 | 0 | 0 |
| 285 | polybius99 | 2:48.59 | 0 | 0 |
| 286 | Adventure Buddy | 2:48.74 | 0 | 0 |
| 287 | DamnedBunny | 2:49.56 | 0 | 0 |
| 288 | Loune Fire | 2:49.78 | 0 | 0 |
| 289 | Despo_357 | 2:50.85 | 0 | 0 |
| 290 | EletroZé | 2:51.05 | 0 | 0 |
| 291 | roxdlol | 2:51.36 | 0 | 0 |
| 292 | Splatsune Miku | 2:51.73 | 0 | 0 |
| 293 | Ghost4573 | 2:51.79 | 0 | 0 |
| 294 | MechPala | 2:51.87 | 0 | 0 |
| 295 | RL | 2:51.92 | 0 | 0 |
| 296 | Mathias | 2:52.23 | 0 | 0 |
| 297 | Qioury | 2:52.59 | 0 | 0 |
| 298 | Dany | 2:53.16 | 0 | 0 |
| 299 | Lud | Forest | 2:53.25 | 0 | 0 |
| 300 | Austinary | 2:53.31 | 0 | 0 |
| 301 | rezzonating | 2:54.50 | 0 | 0 |
| 302 | Fault | 2:54.74 | 0 | 0 |
| 302 | tripl3773ight | 2:54.74 | 0 | 0 |
| 304 | P0LL0 | 2:55.40 | 0 | 0 |
| 305 | Shadiest | 2:55.83 | 0 | 0 |
| 306 | Ultimate Level 100 Vegan Wizard | 2:55.97 | 0 | 0 |
| 307 | Triumphant Trump (Noties Muted) | 2:56.79 | 0 | 0 |
| 308 | Teshi | 2:57.05 | 0 | 0 |
| 309 | FrostCorp | 2:57.28 | 0 | 0 |
| 310 | frgo | 2:57.43 | 0 | 0 |
| 311 | Nanohm The Protogen | 2:57.58 | 0 | 0 |
| 312 | Uranos | 2:58.43 | 0 | 0 |
| 313 | jonesysound | 2:59.02 | 0 | 0 |
| 314 | markschuurman1990 | 2:59.30 | 0 | 0 |
| 315 | Terrapin | 2:59.85 | 0 | 0 |
| 316 | vista_narvas | 3:01.19 | 0 | 0 |
| 317 | Grimmy | 3:01.55 | 0 | 0 |
| 318 | PureSilence | 3:01.88 | 0 | 0 |
| 319 | FyreNinjaMonkey | 3:02.33 | 0 | 0 |
| 320 | ErzoopaRTR | 3:02.35 | 0 | 0 |
| 321 | Nleet | 3:02.78 | 0 | 0 |
| 322 | HotGamer1995 | 3:02.84 | 0 | 0 |
| 323 | Liningcorn9 | 3:02.94 | 0 | 0 |
| 324 | Phaserlight | 3:04.19 | 0 | 0 |
| 325 | gusforester | 3:04.93 | 0 | 0 |
| 326 | SaxyBoi | 3:05.18 | 0 | 0 |
| 327 | mike24680 | 3:05.68 | 0 | 0 |
| 328 | Blacky Stranger | 3:05.70 | 0 | 0 |
| 329 | RickGoose | 3:05.84 | 0 | 0 |
| 330 | Brianag010 | 3:05.90 | 0 | 0 |
| 331 | Sylz | 3:07.40 | 0 | 0 |
| 332 | BluntButters | 3:08.26 | 0 | 0 |
| 333 | Flashben | 3:09.00 | 0 | 0 |
| 334 | ReallyDumbFox | 3:09.41 | 0 | 0 |
| 335 | Arc Dark | 3:09.44 | 0 | 0 |
| 336 | Rikuru_3217 | 3:09.69 | 0 | 0 |
| 337 | Indy1984 | 3:10.54 | 0 | 0 |
| 338 | AVeryTastyCactus | 3:11.22 | 0 | 0 |
| 339 | cuddle | 3:12.26 | 0 | 0 |
| 340 | Cloudy | 3:13.69 | 0 | 0 |
| 341 | Bucket | 3:14.91 | 0 | 0 |
| 342 | Orphan Lion | 3:15.51 | 0 | 0 |
| 343 | Mutant_Killer_Rabbit | 3:16.84 | 0 | 0 |
| 344 | byanymeansnecessary | 3:16.88 | 0 | 0 |
| 345 | ashendeer | 3:17.21 | 0 | 0 |
| 346 | sizifov | 3:17.30 | 0 | 0 |
| 347 | A̶͓̓z̷͓̍ũ̴̩r̷͔͐e̴ | 3:17.37 | 0 | 0 |
| 348 | Zombie | 3:17.45 | 0 | 0 |
| 349 | ruteqube | 3:17.63 | 0 | 0 |
| 350 | NeX | 3:18.19 | 0 | 0 |
| 351 | Agent Tangerine | 3:18.48 | 0 | 0 |
| 352 | ThanksForNothing | 3:18.60 | 0 | 0 |
| 353 | passe_riviere | 3:19.59 | 0 | 0 |
| 354 | MOOSE | 3:19.87 | 0 | 0 |
| 355 | Loading... | 3:20.50 | 0 | 0 |
| 356 | Main Cat | 3:20.83 | 0 | 0 |
| 357 | Jackyl | 3:21.39 | 0 | 0 |
| 358 | B'neppe | 3:21.84 | 0 | 0 |
| 359 | HardRoar|CEOofSex | 3:21.85 | 0 | 0 |
| 360 | PatTheHyruler | 3:22.62 | 0 | 0 |
| 361 | Galaxic | 3:23.30 | 0 | 0 |
| 362 | MrGoody | 3:24.13 | 0 | 0 |
| 363 | BrandonK-TN | 3:24.87 | 0 | 0 |
| 364 | Meldiron | 3:26.48 | 0 | 0 |
| 365 | Amarok | 3:28.02 | 0 | 0 |
| 366 | .present; | 3:28.29 | 0 | 0 |
| 367 | The Spoopiest Centaur | 3:28.79 | 0 | 0 |
| 368 | Onur_123 | 3:28.95 | 0 | 0 |
| 369 | Enzyme Machine | 3:29.46 | 0 | 0 |
| 370 | MI02 | 3:29.91 | 0 | 0 |
| 371 | Nub | 3:29.97 | 0 | 0 |
| 372 | Blank | 3:32.59 | 0 | 0 |
| 373 | Janus | 3:33.35 | 0 | 0 |
| 374 | Setherouth | 3:35.84 | 0 | 0 |
| 375 | Pan Nikt | 3:36.31 | 0 | 0 |
| 376 | Icecube11 | 3:36.54 | 0 | 0 |
| 377 | zorankid | 3:36.56 | 0 | 0 |
| 378 | Ariiiii | 3:38.83 | 0 | 0 |
| 379 | Aerwhisp | 3:39.55 | 0 | 0 |
| 380 | elder matthew | 3:42.01 | 0 | 0 |
| 381 | Chainsaw_Music | 3:43.28 | 0 | 0 |
| 382 | Voltaic | 3:43.66 | 0 | 0 |
| 383 | хочу денег | 3:44.44 | 0 | 0 |
| 384 | sevenofnone | 3:46.60 | 0 | 0 |
| 385 | joekatoe | 3:46.95 | 0 | 0 |
| 386 | Helios | 3:46.97 | 0 | 0 |
| 387 | Pinkamena666 | 3:48.61 | 0 | 0 |
| 388 | MistaHorse | 3:54.04 | 0 | 0 |
| 389 | Glyph | 3:54.16 | 0 | 0 |
| 390 | Naftal | 3:58.25 | 0 | 0 |
| 391 | SuperM | 3:59.91 | 0 | 0 |
| 392 | MentalEdge | 4:04.20 | 0 | 0 |
| 393 | Xandrak | 4:05.41 | 0 | 0 |
| 394 | Wartof | 4:08.30 | 0 | 0 |
| 395 | Dropkick | 4:10.21 | 0 | 0 |
| 396 | Grindsalat | 4:17.94 | 0 | 0 |
| 397 | Lore maker | 4:19.64 | 0 | 0 |
| 398 | SharoffKot | 4:21.61 | 0 | 0 |
| 399 | Zane Wuffy | 4:23.05 | 0 | 0 |
| 400 | Razand | 4:36.58 | 0 | 0 |
| 401 | Loys Nuva | 4:40.07 | 0 | 0 |
| 402 | Cookie Dealer | 4:40.48 | 0 | 0 |
| 403 | JK | 4:43.33 | 0 | 0 |
| 404 | Pureception | 4:43.48 | 0 | 0 |
| 405 | Skrall' | 4:44.82 | 0 | 0 |
| 406 | Brionac | 4:48.36 | 0 | 0 |
| 407 | Godking | 4:59.00 | 0 | 0 |
| 408 | Mendo | 4:59.03 | 0 | 0 |
| 409 | Pothmeister | 5:06.69 | 0 | 0 |
| 410 | Seya La Chouette | 5:08.09 | 0 | 0 |
| 411 | leon | 5:17.69 | 0 | 0 |
| 412 | Jhojhoido | 5:23.93 | 0 | 0 |
| 413 | Clown Dude | 5:24.17 | 0 | 0 |
| 414 | allysonadrianoribeiro | 5:30.07 | 0 | 0 |
| 415 | Starless | 5:34.35 | 0 | 0 |
| 416 | Allen Poe | 5:41.76 | 0 | 0 |
| 417 | Meanguy6050 | 5:42.80 | 0 | 0 |
| 418 | TheZelen | 5:45.51 | 0 | 0 |
| 419 | Yipp | 5:50.79 | 0 | 0 |
| 420 | r3 | 5:51.38 | 0 | 0 |
| 421 | VariousBlazertazer | 6:01.92 | 0 | 0 |
| 422 | Ruff | 6:09.48 | 0 | 0 |
| 423 | treehome | 6:11.46 | 0 | 0 |
| 424 | ThunderGaminFPS | 6:51.08 | 0 | 0 |
| 425 | Theventreur | 7:02.44 | 0 | 0 |
| 426 | Veloxceleron | 7:08.35 | 0 | 0 |
HoldGrip